sensor_id;sensor_type;location;lat;lon;timestamp;P1;durP1;ratioP1;P2;durP2;ratioP2
26822;SDS011;14852;51.910;8.878;2023-05-28T00:02:08;6.90;;;4.22;;
26822;SDS011;14852;51.910;8.878;2023-05-28T00:04:34;6.03;;;3.22;;
26822;SDS011;14852;51.910;8.878;2023-05-28T00:07:00;3.67;;;3.28;;
26822;SDS011;14852;51.910;8.878;2023-05-28T00:09:26;6.40;;;3.10;;
26822;SDS011;14852;51.910;8.878;2023-05-28T00:11:52;6.32;;;3.55;;
26822;SDS011;14852;51.910;8.878;2023-05-28T00:14:18;3.92;;;3.20;;
26822;SDS011;14852;51.910;8.878;2023-05-28T00:16:44;6.85;;;4.60;;
26822;SDS011;14852;51.910;8.878;2023-05-28T00:19:10;3.78;;;2.88;;
26822;SDS011;14852;51.910;8.878;2023-05-28T00:21:36;8.23;;;4.53;;
26822;SDS011;14852;51.910;8.878;2023-05-28T00:24:02;7.15;;;4.07;;
26822;SDS011;14852;51.910;8.878;2023-05-28T00:26:29;5.03;;;3.95;;
26822;SDS011;14852;51.910;8.878;2023-05-28T00:28:56;4.97;;;3.75;;
26822;SDS011;14852;51.910;8.878;2023-05-28T00:31:22;5.03;;;3.53;;
26822;SDS011;14852;51.910;8.878;2023-05-28T00:33:51;7.05;;;3.97;;
26822;SDS011;14852;51.910;8.878;2023-05-28T00:36:16;5.93;;;3.53;;
26822;SDS011;14852;51.910;8.878;2023-05-28T00:38:42;5.85;;;4.00;;
26822;SDS011;14852;51.910;8.878;2023-05-28T00:41:08;5.60;;;3.60;;
26822;SDS011;14852;51.910;8.878;2023-05-28T00:43:34;5.88;;;4.13;;
26822;SDS011;14852;51.910;8.878;2023-05-28T00:46:00;5.47;;;3.38;;
26822;SDS011;14852;51.910;8.878;2023-05-28T00:48:28;7.63;;;4.38;;
26822;SDS011;14852;51.910;8.878;2023-05-28T00:50:55;6.22;;;4.13;;
26822;SDS011;14852;51.910;8.878;2023-05-28T00:53:23;5.25;;;3.90;;
26822;SDS011;14852;51.910;8.878;2023-05-28T00:55:50;5.50;;;3.90;;
26822;SDS011;14852;51.910;8.878;2023-05-28T00:58:16;5.15;;;3.38;;
26822;SDS011;14852;51.910;8.878;2023-05-28T01:00:44;4.72;;;3.40;;
26822;SDS011;14852;51.910;8.878;2023-05-28T01:03:11;4.55;;;3.35;;
26822;SDS011;14852;51.910;8.878;2023-05-28T01:05:37;5.25;;;3.78;;
26822;SDS011;14852;51.910;8.878;2023-05-28T01:08:04;9.13;;;5.15;;
26822;SDS011;14852;51.910;8.878;2023-05-28T01:10:34;7.07;;;4.30;;
26822;SDS011;14852;51.910;8.878;2023-05-28T01:13:01;6.15;;;3.83;;
26822;SDS011;14852;51.910;8.878;2023-05-28T01:15:32;5.10;;;3.90;;
26822;SDS011;14852;51.910;8.878;2023-05-28T01:17:59;5.75;;;3.03;;
26822;SDS011;14852;51.910;8.878;2023-05-28T01:20:27;5.72;;;3.90;;
26822;SDS011;14852;51.910;8.878;2023-05-28T01:22:55;5.75;;;3.95;;
26822;SDS011;14852;51.910;8.878;2023-05-28T01:25:31;6.18;;;4.20;;
26822;SDS011;14852;51.910;8.878;2023-05-28T01:28:01;6.45;;;4.03;;
26822;SDS011;14852;51.910;8.878;2023-05-28T01:33:18;6.70;;;3.85;;
26822;SDS011;14852;51.910;8.878;2023-05-28T01:35:47;6.28;;;3.70;;
26822;SDS011;14852;51.910;8.878;2023-05-28T01:38:16;8.38;;;4.80;;
26822;SDS011;14852;51.910;8.878;2023-05-28T01:40:44;5.28;;;3.92;;
26822;SDS011;14852;51.910;8.878;2023-05-28T01:43:13;5.93;;;4.60;;
26822;SDS011;14852;51.910;8.878;2023-05-28T01:45:40;6.25;;;3.83;;
26822;SDS011;14852;51.910;8.878;2023-05-28T01:48:06;5.72;;;3.55;;
26822;SDS011;14852;51.910;8.878;2023-05-28T01:50:33;5.97;;;4.05;;
26822;SDS011;14852;51.910;8.878;2023-05-28T01:52:59;6.13;;;3.95;;
26822;SDS011;14852;51.910;8.878;2023-05-28T01:55:25;6.22;;;4.05;;
26822;SDS011;14852;51.910;8.878;2023-05-28T01:57:51;6.25;;;3.75;;
26822;SDS011;14852;51.910;8.878;2023-05-28T02:00:17;6.43;;;4.45;;
26822;SDS011;14852;51.910;8.878;2023-05-28T02:02:44;7.95;;;5.07;;
26822;SDS011;14852;51.910;8.878;2023-05-28T02:05:13;7.32;;;4.10;;
26822;SDS011;14852;51.910;8.878;2023-05-28T02:07:40;7.25;;;4.10;;
26822;SDS011;14852;51.910;8.878;2023-05-28T02:10:06;6.78;;;4.65;;
26822;SDS011;14852;51.910;8.878;2023-05-28T02:12:32;7.97;;;4.65;;
26822;SDS011;14852;51.910;8.878;2023-05-28T02:14:58;5.97;;;3.70;;
26822;SDS011;14852;51.910;8.878;2023-05-28T02:17:24;5.95;;;3.38;;
26822;SDS011;14852;51.910;8.878;2023-05-28T02:19:51;6.97;;;4.43;;
26822;SDS011;14852;51.910;8.878;2023-05-28T02:22:17;9.13;;;4.88;;
26822;SDS011;14852;51.910;8.878;2023-05-28T02:24:43;6.20;;;4.43;;
26822;SDS011;14852;51.910;8.878;2023-05-28T02:27:11;7.68;;;4.88;;
26822;SDS011;14852;51.910;8.878;2023-05-28T02:29:37;10.48;;;4.70;;
26822;SDS011;14852;51.910;8.878;2023-05-28T02:32:04;7.60;;;5.05;;
26822;SDS011;14852;51.910;8.878;2023-05-28T02:34:30;5.80;;;3.95;;
26822;SDS011;14852;51.910;8.878;2023-05-28T02:36:56;8.40;;;4.57;;
26822;SDS011;14852;51.910;8.878;2023-05-28T02:39:22;9.07;;;4.85;;
26822;SDS011;14852;51.910;8.878;2023-05-28T02:41:49;6.63;;;4.53;;
26822;SDS011;14852;51.910;8.878;2023-05-28T02:44:15;6.30;;;4.68;;
26822;SDS011;14852;51.910;8.878;2023-05-28T02:46:41;8.43;;;5.38;;
26822;SDS011;14852;51.910;8.878;2023-05-28T02:49:07;8.70;;;5.65;;
26822;SDS011;14852;51.910;8.878;2023-05-28T02:51:33;5.93;;;4.22;;
26822;SDS011;14852;51.910;8.878;2023-05-28T02:54:06;6.88;;;4.60;;
26822;SDS011;14852;51.910;8.878;2023-05-28T02:56:32;5.10;;;3.85;;
26822;SDS011;14852;51.910;8.878;2023-05-28T02:58:58;5.88;;;4.60;;
26822;SDS011;14852;51.910;8.878;2023-05-28T03:01:24;6.22;;;3.88;;
26822;SDS011;14852;51.910;8.878;2023-05-28T03:03:54;6.70;;;4.28;;
26822;SDS011;14852;51.910;8.878;2023-05-28T03:06:21;7.95;;;4.35;;
26822;SDS011;14852;51.910;8.878;2023-05-28T03:08:52;7.10;;;4.50;;
26822;SDS011;14852;51.910;8.878;2023-05-28T03:11:20;6.28;;;4.57;;
26822;SDS011;14852;51.910;8.878;2023-05-28T03:13:45;7.30;;;4.68;;
26822;SDS011;14852;51.910;8.878;2023-05-28T03:16:12;8.05;;;4.90;;
26822;SDS011;14852;51.910;8.878;2023-05-28T03:18:37;6.18;;;4.65;;
26822;SDS011;14852;51.910;8.878;2023-05-28T03:21:05;8.65;;;4.55;;
26822;SDS011;14852;51.910;8.878;2023-05-28T03:23:32;6.30;;;4.57;;
26822;SDS011;14852;51.910;8.878;2023-05-28T03:26:22;5.72;;;4.35;;
26822;SDS011;14852;51.910;8.878;2023-05-28T03:28:49;6.70;;;5.65;;
26822;SDS011;14852;51.910;8.878;2023-05-28T03:31:42;6.82;;;4.63;;
26822;SDS011;14852;51.910;8.878;2023-05-28T03:34:15;7.38;;;4.50;;
26822;SDS011;14852;51.910;8.878;2023-05-28T03:36:42;9.82;;;4.97;;
26822;SDS011;14852;51.910;8.878;2023-05-28T03:39:10;6.63;;;4.22;;
26822;SDS011;14852;51.910;8.878;2023-05-28T03:41:36;5.85;;;4.68;;
26822;SDS011;14852;51.910;8.878;2023-05-28T03:44:03;7.30;;;4.68;;
26822;SDS011;14852;51.910;8.878;2023-05-28T03:46:30;6.57;;;4.68;;
26822;SDS011;14852;51.910;8.878;2023-05-28T03:48:56;7.20;;;4.32;;
26822;SDS011;14852;51.910;8.878;2023-05-28T03:51:24;6.97;;;3.90;;
26822;SDS011;14852;51.910;8.878;2023-05-28T03:53:51;6.57;;;4.47;;
26822;SDS011;14852;51.910;8.878;2023-05-28T03:56:19;6.85;;;4.65;;
26822;SDS011;14852;51.910;8.878;2023-05-28T03:58:47;5.13;;;4.07;;
26822;SDS011;14852;51.910;8.878;2023-05-28T04:01:13;13.43;;;4.18;;
26822;SDS011;14852;51.910;8.878;2023-05-28T04:03:39;4.18;;;3.38;;
26822;SDS011;14852;51.910;8.878;2023-05-28T04:06:05;5.03;;;3.70;;
26822;SDS011;14852;51.910;8.878;2023-05-28T04:08:33;5.85;;;4.00;;
26822;SDS011;14852;51.910;8.878;2023-05-28T04:11:00;4.40;;;3.38;;
26822;SDS011;14852;51.910;8.878;2023-05-28T04:13:25;4.53;;;3.65;;
26822;SDS011;14852;51.910;8.878;2023-05-28T04:15:51;7.72;;;4.05;;
26822;SDS011;14852;51.910;8.878;2023-05-28T04:18:17;7.13;;;4.25;;
26822;SDS011;14852;51.910;8.878;2023-05-28T04:20:43;6.70;;;4.68;;
26822;SDS011;14852;51.910;8.878;2023-05-28T04:23:09;7.47;;;4.28;;
26822;SDS011;14852;51.910;8.878;2023-05-28T04:25:36;5.80;;;3.95;;
26822;SDS011;14852;51.910;8.878;2023-05-28T04:28:02;4.70;;;3.83;;
26822;SDS011;14852;51.910;8.878;2023-05-28T04:30:28;5.00;;;3.80;;
26822;SDS011;14852;51.910;8.878;2023-05-28T04:32:55;5.90;;;3.95;;
26822;SDS011;14852;51.910;8.878;2023-05-28T04:35:21;5.97;;;3.90;;
26822;SDS011;14852;51.910;8.878;2023-05-28T04:37:47;7.80;;;4.90;;
26822;SDS011;14852;51.910;8.878;2023-05-28T04:40:16;7.35;;;4.30;;
26822;SDS011;14852;51.910;8.878;2023-05-28T04:42:42;7.93;;;4.28;;
26822;SDS011;14852;51.910;8.878;2023-05-28T04:45:08;7.00;;;4.25;;
26822;SDS011;14852;51.910;8.878;2023-05-28T04:47:36;6.15;;;3.72;;
26822;SDS011;14852;51.910;8.878;2023-05-28T04:50:03;6.00;;;4.28;;
26822;SDS011;14852;51.910;8.878;2023-05-28T04:52:31;6.55;;;4.25;;
26822;SDS011;14852;51.910;8.878;2023-05-28T04:54:58;7.88;;;4.57;;
26822;SDS011;14852;51.910;8.878;2023-05-28T04:57:24;9.68;;;4.50;;
26822;SDS011;14852;51.910;8.878;2023-05-28T04:59:51;6.63;;;4.10;;
26822;SDS011;14852;51.910;8.878;2023-05-28T05:02:17;5.15;;;3.72;;
26822;SDS011;14852;51.910;8.878;2023-05-28T05:04:47;5.25;;;3.60;;
26822;SDS011;14852;51.910;8.878;2023-05-28T05:07:14;4.85;;;3.70;;
26822;SDS011;14852;51.910;8.878;2023-05-28T05:09:42;4.57;;;3.53;;
26822;SDS011;14852;51.910;8.878;2023-05-28T05:12:09;4.05;;;3.40;;
26822;SDS011;14852;51.910;8.878;2023-05-28T05:14:35;3.95;;;3.45;;
26822;SDS011;14852;51.910;8.878;2023-05-28T05:17:02;7.05;;;3.88;;
26822;SDS011;14852;51.910;8.878;2023-05-28T05:19:29;5.45;;;3.00;;
26822;SDS011;14852;51.910;8.878;2023-05-28T05:21:54;4.38;;;3.13;;
26822;SDS011;14852;51.910;8.878;2023-05-28T05:24:21;6.72;;;3.35;;
26822;SDS011;14852;51.910;8.878;2023-05-28T05:26:47;6.05;;;3.08;;
26822;SDS011;14852;51.910;8.878;2023-05-28T05:29:13;4.65;;;3.28;;
26822;SDS011;14852;51.910;8.878;2023-05-28T05:31:39;4.15;;;2.78;;
26822;SDS011;14852;51.910;8.878;2023-05-28T05:34:07;5.30;;;3.05;;
26822;SDS011;14852;51.910;8.878;2023-05-28T05:36:53;6.00;;;2.85;;
26822;SDS011;14852;51.910;8.878;2023-05-28T05:39:19;4.60;;;3.10;;
26822;SDS011;14852;51.910;8.878;2023-05-28T05:42:01;4.25;;;3.00;;
26822;SDS011;14852;51.910;8.878;2023-05-28T05:44:47;5.32;;;3.10;;
26822;SDS011;14852;51.910;8.878;2023-05-28T05:47:13;4.55;;;3.05;;
26822;SDS011;14852;51.910;8.878;2023-05-28T05:49:39;5.60;;;3.13;;
26822;SDS011;14852;51.910;8.878;2023-05-28T05:52:06;6.20;;;3.33;;
26822;SDS011;14852;51.910;8.878;2023-05-28T05:54:34;4.22;;;3.17;;
26822;SDS011;14852;51.910;8.878;2023-05-28T05:57:01;4.85;;;3.60;;
26822;SDS011;14852;51.910;8.878;2023-05-28T05:59:30;5.18;;;3.38;;
26822;SDS011;14852;51.910;8.878;2023-05-28T06:01:56;6.05;;;3.83;;
26822;SDS011;14852;51.910;8.878;2023-05-28T06:04:23;8.60;;;3.95;;
26822;SDS011;14852;51.910;8.878;2023-05-28T06:07:10;5.55;;;4.07;;
26822;SDS011;14852;51.910;8.878;2023-05-28T06:09:54;4.82;;;3.95;;
26822;SDS011;14852;51.910;8.878;2023-05-28T06:12:24;5.43;;;3.35;;
26822;SDS011;14852;51.910;8.878;2023-05-28T06:14:50;6.75;;;3.97;;
26822;SDS011;14852;51.910;8.878;2023-05-28T06:17:17;8.43;;;3.63;;
26822;SDS011;14852;51.910;8.878;2023-05-28T06:19:43;4.22;;;3.28;;
26822;SDS011;14852;51.910;8.878;2023-05-28T06:22:09;7.00;;;3.78;;
26822;SDS011;14852;51.910;8.878;2023-05-28T06:24:36;6.13;;;3.03;;
26822;SDS011;14852;51.910;8.878;2023-05-28T06:27:04;6.43;;;4.25;;
26822;SDS011;14852;51.910;8.878;2023-05-28T06:29:30;5.20;;;3.10;;
26822;SDS011;14852;51.910;8.878;2023-05-28T06:31:56;7.05;;;3.72;;
26822;SDS011;14852;51.910;8.878;2023-05-28T06:34:22;8.20;;;3.63;;
26822;SDS011;14852;51.910;8.878;2023-05-28T06:36:48;3.95;;;3.30;;
26822;SDS011;14852;51.910;8.878;2023-05-28T06:39:14;8.77;;;3.75;;
26822;SDS011;14852;51.910;8.878;2023-05-28T06:41:44;5.10;;;3.58;;
26822;SDS011;14852;51.910;8.878;2023-05-28T06:44:18;6.35;;;3.25;;
26822;SDS011;14852;51.910;8.878;2023-05-28T06:46:55;4.25;;;3.10;;
26822;SDS011;14852;51.910;8.878;2023-05-28T06:49:21;4.43;;;3.50;;
26822;SDS011;14852;51.910;8.878;2023-05-28T06:51:47;3.92;;;3.28;;
26822;SDS011;14852;51.910;8.878;2023-05-28T06:54:13;5.45;;;3.33;;
26822;SDS011;14852;51.910;8.878;2023-05-28T06:56:39;5.93;;;3.28;;
26822;SDS011;14852;51.910;8.878;2023-05-28T06:59:05;5.88;;;3.50;;
26822;SDS011;14852;51.910;8.878;2023-05-28T07:01:50;5.53;;;3.70;;
26822;SDS011;14852;51.910;8.878;2023-05-28T07:04:36;5.25;;;3.30;;
26822;SDS011;14852;51.910;8.878;2023-05-28T07:07:10;6.07;;;3.78;;
26822;SDS011;14852;51.910;8.878;2023-05-28T07:09:36;6.72;;;3.58;;
26822;SDS011;14852;51.910;8.878;2023-05-28T07:12:02;4.93;;;3.60;;
26822;SDS011;14852;51.910;8.878;2023-05-28T07:14:29;6.28;;;3.38;;
26822;SDS011;14852;51.910;8.878;2023-05-28T07:16:55;6.63;;;3.03;;
26822;SDS011;14852;51.910;8.878;2023-05-28T07:19:21;4.00;;;2.85;;
26822;SDS011;14852;51.910;8.878;2023-05-28T07:21:47;3.33;;;2.42;;
26822;SDS011;14852;51.910;8.878;2023-05-28T07:24:13;3.63;;;2.58;;
26822;SDS011;14852;51.910;8.878;2023-05-28T07:26:39;5.63;;;2.95;;
26822;SDS011;14852;51.910;8.878;2023-05-28T07:29:06;5.93;;;3.10;;
26822;SDS011;14852;51.910;8.878;2023-05-28T07:31:32;6.82;;;3.78;;
26822;SDS011;14852;51.910;8.878;2023-05-28T07:33:59;5.18;;;3.10;;
26822;SDS011;14852;51.910;8.878;2023-05-28T07:36:30;4.07;;;2.75;;
26822;SDS011;14852;51.910;8.878;2023-05-28T07:38:56;3.13;;;2.65;;
26822;SDS011;14852;51.910;8.878;2023-05-28T07:41:22;5.07;;;2.78;;
26822;SDS011;14852;51.910;8.878;2023-05-28T07:43:56;3.42;;;2.80;;
26822;SDS011;14852;51.910;8.878;2023-05-28T07:46:25;4.07;;;3.08;;
26822;SDS011;14852;51.910;8.878;2023-05-28T07:48:57;3.80;;;2.80;;
26822;SDS011;14852;51.910;8.878;2023-05-28T07:51:24;4.65;;;3.03;;
26822;SDS011;14852;51.910;8.878;2023-05-28T07:53:59;5.05;;;2.97;;
26822;SDS011;14852;51.910;8.878;2023-05-28T07:56:26;7.13;;;3.10;;
26822;SDS011;14852;51.910;8.878;2023-05-28T07:58:52;3.78;;;2.70;;
26822;SDS011;14852;51.910;8.878;2023-05-28T08:01:18;5.15;;;3.00;;
26822;SDS011;14852;51.910;8.878;2023-05-28T08:03:45;3.85;;;3.00;;
26822;SDS011;14852;51.910;8.878;2023-05-28T08:06:17;5.25;;;2.97;;
26822;SDS011;14852;51.910;8.878;2023-05-28T08:08:43;5.07;;;2.70;;
26822;SDS011;14852;51.910;8.878;2023-05-28T08:11:09;3.72;;;2.83;;
26822;SDS011;14852;51.910;8.878;2023-05-28T08:13:38;4.18;;;3.42;;
26822;SDS011;14852;51.910;8.878;2023-05-28T08:16:11;3.65;;;2.53;;
26822;SDS011;14852;51.910;8.878;2023-05-28T08:19:00;4.93;;;2.65;;
26822;SDS011;14852;51.910;8.878;2023-05-28T08:21:27;3.97;;;2.75;;
26822;SDS011;14852;51.910;8.878;2023-05-28T08:23:54;3.33;;;2.30;;
26822;SDS011;14852;51.910;8.878;2023-05-28T08:26:20;2.85;;;2.55;;
26822;SDS011;14852;51.910;8.878;2023-05-28T08:28:46;5.63;;;2.97;;
26822;SDS011;14852;51.910;8.878;2023-05-28T08:31:12;3.47;;;2.47;;
26822;SDS011;14852;51.910;8.878;2023-05-28T08:33:51;4.43;;;2.58;;
26822;SDS011;14852;51.910;8.878;2023-05-28T08:36:18;5.78;;;2.88;;
26822;SDS011;14852;51.910;8.878;2023-05-28T08:38:46;2.33;;;1.90;;
26822;SDS011;14852;51.910;8.878;2023-05-28T08:41:12;3.45;;;2.40;;
26822;SDS011;14852;51.910;8.878;2023-05-28T08:43:38;4.57;;;2.90;;
26822;SDS011;14852;51.910;8.878;2023-05-28T08:46:04;4.68;;;2.75;;
26822;SDS011;14852;51.910;8.878;2023-05-28T08:48:39;4.05;;;2.33;;
26822;SDS011;14852;51.910;8.878;2023-05-28T08:51:07;5.20;;;2.67;;
26822;SDS011;14852;51.910;8.878;2023-05-28T08:53:37;4.43;;;3.05;;
26822;SDS011;14852;51.910;8.878;2023-05-28T08:56:09;4.65;;;2.72;;
26822;SDS011;14852;51.910;8.878;2023-05-28T08:58:37;3.50;;;2.42;;
26822;SDS011;14852;51.910;8.878;2023-05-28T09:01:04;5.03;;;2.45;;
26822;SDS011;14852;51.910;8.878;2023-05-28T09:03:40;3.50;;;2.30;;
26822;SDS011;14852;51.910;8.878;2023-05-28T09:06:13;6.22;;;3.05;;
26822;SDS011;14852;51.910;8.878;2023-05-28T09:08:40;5.65;;;2.50;;
26822;SDS011;14852;51.910;8.878;2023-05-28T09:11:19;6.25;;;2.83;;
26822;SDS011;14852;51.910;8.878;2023-05-28T09:13:47;4.15;;;2.63;;
26822;SDS011;14852;51.910;8.878;2023-05-28T09:16:20;4.97;;;2.50;;
26822;SDS011;14852;51.910;8.878;2023-05-28T09:18:52;5.22;;;2.67;;
26822;SDS011;14852;51.910;8.878;2023-05-28T09:21:28;7.93;;;2.90;;
26822;SDS011;14852;51.910;8.878;2023-05-28T09:23:58;2.92;;;2.17;;
26822;SDS011;14852;51.910;8.878;2023-05-28T09:26:28;4.13;;;2.78;;
26822;SDS011;14852;51.910;8.878;2023-05-28T09:29:00;3.65;;;2.80;;
26822;SDS011;14852;51.910;8.878;2023-05-28T09:31:29;3.42;;;2.70;;
26822;SDS011;14852;51.910;8.878;2023-05-28T09:36:26;3.20;;;2.40;;
26822;SDS011;14852;51.910;8.878;2023-05-28T09:38:57;3.17;;;2.15;;
26822;SDS011;14852;51.910;8.878;2023-05-28T09:41:24;3.80;;;2.58;;
26822;SDS011;14852;51.910;8.878;2023-05-28T09:43:59;4.82;;;2.67;;
26822;SDS011;14852;51.910;8.878;2023-05-28T09:46:27;4.35;;;2.47;;
26822;SDS011;14852;51.910;8.878;2023-05-28T09:48:55;4.28;;;2.75;;
26822;SDS011;14852;51.910;8.878;2023-05-28T09:51:24;3.50;;;2.45;;
26822;SDS011;14852;51.910;8.878;2023-05-28T09:54:00;3.70;;;2.40;;
26822;SDS011;14852;51.910;8.878;2023-05-28T09:56:30;4.05;;;2.83;;
26822;SDS011;14852;51.910;8.878;2023-05-28T09:59:00;3.33;;;2.35;;
26822;SDS011;14852;51.910;8.878;2023-05-28T10:01:31;4.53;;;2.70;;
26822;SDS011;14852;51.910;8.878;2023-05-28T10:04:07;5.18;;;2.47;;
26822;SDS011;14852;51.910;8.878;2023-05-28T10:06:34;4.30;;;2.72;;
26822;SDS011;14852;51.910;8.878;2023-05-28T10:09:03;4.35;;;2.25;;
26822;SDS011;14852;51.910;8.878;2023-05-28T10:11:30;2.83;;;2.20;;
26822;SDS011;14852;51.910;8.878;2023-05-28T10:14:06;3.05;;;2.35;;
26822;SDS011;14852;51.910;8.878;2023-05-28T10:16:33;4.00;;;2.33;;
26822;SDS011;14852;51.910;8.878;2023-05-28T10:19:00;4.60;;;2.80;;
26822;SDS011;14852;51.910;8.878;2023-05-28T10:21:27;3.85;;;2.80;;
26822;SDS011;14852;51.910;8.878;2023-05-28T10:23:53;5.38;;;3.03;;
26822;SDS011;14852;51.910;8.878;2023-05-28T10:26:21;4.10;;;2.47;;
26822;SDS011;14852;51.910;8.878;2023-05-28T10:28:54;5.20;;;3.05;;
26822;SDS011;14852;51.910;8.878;2023-05-28T10:31:22;5.80;;;3.33;;
26822;SDS011;14852;51.910;8.878;2023-05-28T10:33:48;4.78;;;3.05;;
26822;SDS011;14852;51.910;8.878;2023-05-28T10:36:15;3.40;;;2.63;;
26822;SDS011;14852;51.910;8.878;2023-05-28T10:38:50;4.95;;;2.70;;
26822;SDS011;14852;51.910;8.878;2023-05-28T10:41:30;7.05;;;3.63;;
26822;SDS011;14852;51.910;8.878;2023-05-28T10:44:04;2.78;;;2.03;;
26822;SDS011;14852;51.910;8.878;2023-05-28T10:46:35;3.63;;;2.65;;
26822;SDS011;14852;51.910;8.878;2023-05-28T10:49:11;5.22;;;2.63;;
26822;SDS011;14852;51.910;8.878;2023-05-28T10:51:55;5.03;;;2.72;;
26822;SDS011;14852;51.910;8.878;2023-05-28T10:57:05;3.03;;;2.50;;
26822;SDS011;14852;51.910;8.878;2023-05-28T10:59:38;6.80;;;3.40;;
26822;SDS011;14852;51.910;8.878;2023-05-28T11:02:08;4.20;;;2.75;;
26822;SDS011;14852;51.910;8.878;2023-05-28T11:04:35;4.97;;;2.50;;
26822;SDS011;14852;51.910;8.878;2023-05-28T11:07:01;6.63;;;3.03;;
26822;SDS011;14852;51.910;8.878;2023-05-28T11:09:30;4.15;;;2.85;;
26822;SDS011;14852;51.910;8.878;2023-05-28T11:12:00;3.47;;;2.47;;
26822;SDS011;14852;51.910;8.878;2023-05-28T11:14:37;3.92;;;2.28;;
26822;SDS011;14852;51.910;8.878;2023-05-28T11:17:21;5.32;;;3.00;;
26822;SDS011;14852;51.910;8.878;2023-05-28T11:19:48;4.25;;;2.92;;
26822;SDS011;14852;51.910;8.878;2023-05-28T11:22:16;5.80;;;3.35;;
26822;SDS011;14852;51.910;8.878;2023-05-28T11:27:29;4.50;;;2.70;;
26822;SDS011;14852;51.910;8.878;2023-05-28T11:30:01;3.00;;;2.40;;
26822;SDS011;14852;51.910;8.878;2023-05-28T11:32:33;4.80;;;2.67;;
26822;SDS011;14852;51.910;8.878;2023-05-28T11:34:59;4.55;;;2.75;;
26822;SDS011;14852;51.910;8.878;2023-05-28T11:37:29;4.38;;;2.70;;
26822;SDS011;14852;51.910;8.878;2023-05-28T11:40:00;4.00;;;2.83;;
26822;SDS011;14852;51.910;8.878;2023-05-28T11:42:30;3.25;;;2.33;;
26822;SDS011;14852;51.910;8.878;2023-05-28T11:44:57;3.90;;;2.65;;
26822;SDS011;14852;51.910;8.878;2023-05-28T11:47:23;4.88;;;2.50;;
26822;SDS011;14852;51.910;8.878;2023-05-28T11:49:50;4.18;;;3.08;;
26822;SDS011;14852;51.910;8.878;2023-05-28T11:52:25;3.28;;;2.60;;
26822;SDS011;14852;51.910;8.878;2023-05-28T11:54:52;6.30;;;2.67;;
26822;SDS011;14852;51.910;8.878;2023-05-28T11:57:25;3.97;;;2.88;;
26822;SDS011;14852;51.910;8.878;2023-05-28T12:00:00;5.15;;;3.08;;
26822;SDS011;14852;51.910;8.878;2023-05-28T12:02:53;3.90;;;2.80;;
26822;SDS011;14852;51.910;8.878;2023-05-28T12:05:19;4.72;;;2.88;;
26822;SDS011;14852;51.910;8.878;2023-05-28T12:07:47;5.53;;;2.80;;
26822;SDS011;14852;51.910;8.878;2023-05-28T12:10:17;5.15;;;2.88;;
26822;SDS011;14852;51.910;8.878;2023-05-28T12:12:51;3.50;;;2.20;;
26822;SDS011;14852;51.910;8.878;2023-05-28T12:15:21;6.60;;;3.15;;
26822;SDS011;14852;51.910;8.878;2023-05-28T12:17:53;6.20;;;3.03;;
26822;SDS011;14852;51.910;8.878;2023-05-28T12:23:00;3.35;;;2.63;;
26822;SDS011;14852;51.910;8.878;2023-05-28T12:25:50;3.50;;;2.45;;
26822;SDS011;14852;51.910;8.878;2023-05-28T12:28:18;4.22;;;2.75;;
26822;SDS011;14852;51.910;8.878;2023-05-28T12:30:46;5.20;;;3.00;;
26822;SDS011;14852;51.910;8.878;2023-05-28T12:33:19;4.47;;;2.50;;
26822;SDS011;14852;51.910;8.878;2023-05-28T12:35:47;4.30;;;2.83;;
26822;SDS011;14852;51.910;8.878;2023-05-28T12:38:14;4.45;;;2.60;;
26822;SDS011;14852;51.910;8.878;2023-05-28T12:40:40;5.47;;;2.75;;
26822;SDS011;14852;51.910;8.878;2023-05-28T12:43:06;5.38;;;2.92;;
26822;SDS011;14852;51.910;8.878;2023-05-28T12:45:32;4.15;;;2.72;;
26822;SDS011;14852;51.910;8.878;2023-05-28T12:47:59;7.13;;;3.67;;
26822;SDS011;14852;51.910;8.878;2023-05-28T12:50:25;5.57;;;3.00;;
26822;SDS011;14852;51.910;8.878;2023-05-28T12:52:51;7.18;;;2.88;;
26822;SDS011;14852;51.910;8.878;2023-05-28T12:55:17;3.40;;;3.10;;
26822;SDS011;14852;51.910;8.878;2023-05-28T12:57:43;4.55;;;2.92;;
26822;SDS011;14852;51.910;8.878;2023-05-28T13:00:09;3.78;;;2.45;;
26822;SDS011;14852;51.910;8.878;2023-05-28T13:02:39;5.93;;;4.53;;
26822;SDS011;14852;51.910;8.878;2023-05-28T13:05:06;6.25;;;4.22;;
26822;SDS011;14852;51.910;8.878;2023-05-28T13:07:32;4.80;;;2.80;;
26822;SDS011;14852;51.910;8.878;2023-05-28T13:09:58;4.47;;;3.15;;
26822;SDS011;14852;51.910;8.878;2023-05-28T13:12:24;5.25;;;3.33;;
26822;SDS011;14852;51.910;8.878;2023-05-28T13:14:50;3.67;;;2.67;;
26822;SDS011;14852;51.910;8.878;2023-05-28T13:17:16;3.42;;;2.63;;
26822;SDS011;14852;51.910;8.878;2023-05-28T13:19:44;6.03;;;3.40;;
26822;SDS011;14852;51.910;8.878;2023-05-28T13:22:10;6.57;;;3.13;;
26822;SDS011;14852;51.910;8.878;2023-05-28T13:24:38;5.78;;;3.08;;
26822;SDS011;14852;51.910;8.878;2023-05-28T13:27:03;4.88;;;3.20;;
26822;SDS011;14852;51.910;8.878;2023-05-28T13:29:29;3.95;;;2.67;;
26822;SDS011;14852;51.910;8.878;2023-05-28T13:31:55;3.88;;;2.92;;
26822;SDS011;14852;51.910;8.878;2023-05-28T13:34:21;5.75;;;2.85;;
26822;SDS011;14852;51.910;8.878;2023-05-28T13:36:46;5.10;;;3.17;;
26822;SDS011;14852;51.910;8.878;2023-05-28T13:39:12;4.38;;;2.55;;
26822;SDS011;14852;51.910;8.878;2023-05-28T13:41:38;5.90;;;2.67;;
26822;SDS011;14852;51.910;8.878;2023-05-28T13:44:05;4.25;;;2.63;;
26822;SDS011;14852;51.910;8.878;2023-05-28T13:46:31;3.17;;;2.28;;
26822;SDS011;14852;51.910;8.878;2023-05-28T13:48:56;3.38;;;2.60;;
26822;SDS011;14852;51.910;8.878;2023-05-28T13:51:22;3.22;;;2.80;;
26822;SDS011;14852;51.910;8.878;2023-05-28T13:53:48;4.75;;;2.45;;
26822;SDS011;14852;51.910;8.878;2023-05-28T13:56:14;3.28;;;2.55;;
26822;SDS011;14852;51.910;8.878;2023-05-28T13:58:40;3.97;;;2.35;;
26822;SDS011;14852;51.910;8.878;2023-05-28T14:01:06;4.55;;;2.60;;
26822;SDS011;14852;51.910;8.878;2023-05-28T14:03:32;5.88;;;2.78;;
26822;SDS011;14852;51.910;8.878;2023-05-28T14:05:58;3.67;;;2.67;;
26822;SDS011;14852;51.910;8.878;2023-05-28T14:08:24;4.60;;;2.28;;
26822;SDS011;14852;51.910;8.878;2023-05-28T14:10:50;4.20;;;2.58;;
26822;SDS011;14852;51.910;8.878;2023-05-28T14:13:16;3.63;;;2.33;;
26822;SDS011;14852;51.910;8.878;2023-05-28T14:15:42;3.95;;;2.33;;
26822;SDS011;14852;51.910;8.878;2023-05-28T14:18:08;3.20;;;2.25;;
26822;SDS011;14852;51.910;8.878;2023-05-28T14:20:36;4.95;;;2.35;;
26822;SDS011;14852;51.910;8.878;2023-05-28T14:23:02;3.70;;;2.15;;
26822;SDS011;14852;51.910;8.878;2023-05-28T14:25:29;3.80;;;2.35;;
26822;SDS011;14852;51.910;8.878;2023-05-28T14:27:55;3.88;;;2.35;;
26822;SDS011;14852;51.910;8.878;2023-05-28T14:30:22;3.97;;;2.80;;
26822;SDS011;14852;51.910;8.878;2023-05-28T14:32:48;2.75;;;2.42;;
26822;SDS011;14852;51.910;8.878;2023-05-28T14:35:14;3.05;;;2.25;;
26822;SDS011;14852;51.910;8.878;2023-05-28T14:37:40;3.45;;;2.17;;
26822;SDS011;14852;51.910;8.878;2023-05-28T14:40:06;4.05;;;2.38;;
26822;SDS011;14852;51.910;8.878;2023-05-28T14:42:32;6.00;;;3.03;;
26822;SDS011;14852;51.910;8.878;2023-05-28T14:44:58;4.97;;;2.65;;
26822;SDS011;14852;51.910;8.878;2023-05-28T14:47:24;3.63;;;2.72;;
26822;SDS011;14852;51.910;8.878;2023-05-28T14:49:50;3.70;;;2.67;;
26822;SDS011;14852;51.910;8.878;2023-05-28T14:52:20;4.30;;;2.70;;
26822;SDS011;14852;51.910;8.878;2023-05-28T14:54:51;3.05;;;2.30;;
26822;SDS011;14852;51.910;8.878;2023-05-28T14:57:19;4.35;;;2.75;;
26822;SDS011;14852;51.910;8.878;2023-05-28T14:59:49;3.13;;;2.28;;
26822;SDS011;14852;51.910;8.878;2023-05-28T15:02:17;4.50;;;2.83;;
26822;SDS011;14852;51.910;8.878;2023-05-28T15:04:43;4.57;;;3.47;;
26822;SDS011;14852;51.910;8.878;2023-05-28T15:07:11;5.40;;;2.65;;
26822;SDS011;14852;51.910;8.878;2023-05-28T15:09:37;4.45;;;2.70;;